sensor_id;sensor_type;location;lat;lon;timestamp;temperature;humidity
21622;DHT22;10973;46.706;12.340;2022-08-25T00:00:15;13.10;99.90
21622;DHT22;10973;46.706;12.340;2022-08-25T00:02:43;13.10;99.90
21622;DHT22;10973;46.706;12.340;2022-08-25T00:05:25;13.10;99.90
21622;DHT22;10973;46.706;12.340;2022-08-25T00:07:58;13.10;99.90
21622;DHT22;10973;46.706;12.340;2022-08-25T00:10:26;13.10;99.90
21622;DHT22;10973;46.706;12.340;2022-08-25T00:12:54;13.20;99.90
21622;DHT22;10973;46.706;12.340;2022-08-25T00:15:21;13.30;99.90
21622;DHT22;10973;46.706;12.340;2022-08-25T00:17:49;13.30;99.90
21622;DHT22;10973;46.706;12.340;2022-08-25T00:20:17;13.30;99.90
21622;DHT22;10973;46.706;12.340;2022-08-25T00:22:45;13.30;99.90
21622;DHT22;10973;46.706;12.340;2022-08-25T00:25:12;13.30;99.90
21622;DHT22;10973;46.706;12.340;2022-08-25T00:27:39;13.40;99.90
21622;DHT22;10973;46.706;12.340;2022-08-25T00:30:08;13.40;99.90
21622;DHT22;10973;46.706;12.340;2022-08-25T00:32:38;13.40;99.90
21622;DHT22;10973;46.706;12.340;2022-08-25T00:39:07;13.50;99.90
21622;DHT22;10973;46.706;12.340;2022-08-25T00:41:37;13.60;99.90
21622;DHT22;10973;46.706;12.340;2022-08-25T00:44:07;13.50;99.90
21622;DHT22;10973;46.706;12.340;2022-08-25T00:46:43;13.50;99.90
21622;DHT22;10973;46.706;12.340;2022-08-25T00:49:29;13.50;99.90
21622;DHT22;10973;46.706;12.340;2022-08-25T00:56:01;13.30;99.90
21622;DHT22;10973;46.706;12.340;2022-08-25T00:58:31;13.30;99.90
21622;DHT22;10973;46.706;12.340;2022-08-25T01:05:10;13.30;99.90
21622;DHT22;10973;46.706;12.340;2022-08-25T01:11:47;13.20;99.90
21622;DHT22;10973;46.706;12.340;2022-08-25T01:14:16;13.00;99.90
21622;DHT22;10973;46.706;12.340;2022-08-25T01:21:15;12.80;99.90
21622;DHT22;10973;46.706;12.340;2022-08-25T01:23:45;12.70;99.90
21622;DHT22;10973;46.706;12.340;2022-08-25T01:26:22;12.70;99.90
21622;DHT22;10973;46.706;12.340;2022-08-25T01:32:15;12.70;99.90
21622;DHT22;10973;46.706;12.340;2022-08-25T01:38:42;12.60;99.90
21622;DHT22;10973;46.706;12.340;2022-08-25T01:41:10;12.60;99.90
21622;DHT22;10973;46.706;12.340;2022-08-25T01:43:37;12.60;99.90
21622;DHT22;10973;46.706;12.340;2022-08-25T01:46:05;12.50;99.90
21622;DHT22;10973;46.706;12.340;2022-08-25T01:52:57;12.60;99.90
21622;DHT22;10973;46.706;12.340;2022-08-25T01:55:37;12.50;99.90
21622;DHT22;10973;46.706;12.340;2022-08-25T01:58:05;12.40;99.90
21622;DHT22;10973;46.706;12.340;2022-08-25T02:00:32;12.30;99.90
21622;DHT22;10973;46.706;12.340;2022-08-25T02:02:59;12.30;99.90
21622;DHT22;10973;46.706;12.340;2022-08-25T02:05:28;12.30;99.90
21622;DHT22;10973;46.706;12.340;2022-08-25T02:07:58;12.40;99.90
21622;DHT22;10973;46.706;12.340;2022-08-25T02:10:25;12.40;99.90
21622;DHT22;10973;46.706;12.340;2022-08-25T02:17:03;12.30;99.90
21622;DHT22;10973;46.706;12.340;2022-08-25T02:19:31;12.20;99.90
21622;DHT22;10973;46.706;12.340;2022-08-25T02:22:00;12.20;99.90
21622;DHT22;10973;46.706;12.340;2022-08-25T02:24:28;12.30;99.90
21622;DHT22;10973;46.706;12.340;2022-08-25T02:34:36;12.10;99.90
21622;DHT22;10973;46.706;12.340;2022-08-25T02:37:04;12.10;99.90
21622;DHT22;10973;46.706;12.340;2022-08-25T02:39:31;12.10;99.90
21622;DHT22;10973;46.706;12.340;2022-08-25T02:45:58;12.00;99.90
21622;DHT22;10973;46.706;12.340;2022-08-25T02:48:25;12.00;99.90
21622;DHT22;10973;46.706;12.340;2022-08-25T02:55:04;11.90;99.90
21622;DHT22;10973;46.706;12.340;2022-08-25T02:57:33;11.90;99.90
21622;DHT22;10973;46.706;12.340;2022-08-25T03:04:22;11.90;99.90
21622;DHT22;10973;46.706;12.340;2022-08-25T03:06:49;11.80;99.90
21622;DHT22;10973;46.706;12.340;2022-08-25T03:09:17;11.90;99.90
21622;DHT22;10973;46.706;12.340;2022-08-25T03:19:54;11.90;99.90
21622;DHT22;10973;46.706;12.340;2022-08-25T03:22:21;11.90;99.90
21622;DHT22;10973;46.706;12.340;2022-08-25T03:24:48;11.80;99.90
21622;DHT22;10973;46.706;12.340;2022-08-25T03:31:25;11.70;99.90
21622;DHT22;10973;46.706;12.340;2022-08-25T03:33:53;11.60;99.90
21622;DHT22;10973;46.706;12.340;2022-08-25T03:36:21;11.60;99.90
21622;DHT22;10973;46.706;12.340;2022-08-25T03:38:50;11.60;99.90
21622;DHT22;10973;46.706;12.340;2022-08-25T03:41:28;11.50;99.90
21622;DHT22;10973;46.706;12.340;2022-08-25T03:43:58;11.60;99.90
21622;DHT22;10973;46.706;12.340;2022-08-25T03:46:30;11.60;99.90
21622;DHT22;10973;46.706;12.340;2022-08-25T03:49:00;11.50;99.90
21622;DHT22;10973;46.706;12.340;2022-08-25T03:51:33;11.60;99.90
21622;DHT22;10973;46.706;12.340;2022-08-25T03:54:04;11.60;99.90
21622;DHT22;10973;46.706;12.340;2022-08-25T03:56:33;11.60;99.90
21622;DHT22;10973;46.706;12.340;2022-08-25T03:59:00;11.50;99.90
21622;DHT22;10973;46.706;12.340;2022-08-25T04:09:37;11.40;99.90
21622;DHT22;10973;46.706;12.340;2022-08-25T04:12:05;11.40;99.90
21622;DHT22;10973;46.706;12.340;2022-08-25T04:14:32;11.40;99.90
21622;DHT22;10973;46.706;12.340;2022-08-25T04:17:02;11.40;99.90
21622;DHT22;10973;46.706;12.340;2022-08-25T04:19:30;11.40;99.90
21622;DHT22;10973;46.706;12.340;2022-08-25T04:21:57;11.30;99.90
21622;DHT22;10973;46.706;12.340;2022-08-25T04:24:24;11.40;99.90
21622;DHT22;10973;46.706;12.340;2022-08-25T04:26:52;11.40;99.90
21622;DHT22;10973;46.706;12.340;2022-08-25T04:29:22;11.40;99.90
21622;DHT22;10973;46.706;12.340;2022-08-25T04:31:52;11.40;99.90
21622;DHT22;10973;46.706;12.340;2022-08-25T04:34:23;11.30;99.90
21622;DHT22;10973;46.706;12.340;2022-08-25T04:37:02;11.30;99.90
21622;DHT22;10973;46.706;12.340;2022-08-25T04:39:31;11.30;99.90
21622;DHT22;10973;46.706;12.340;2022-08-25T04:46:13;11.30;99.90
21622;DHT22;10973;46.706;12.340;2022-08-25T04:48:48;11.20;99.90
21622;DHT22;10973;46.706;12.340;2022-08-25T04:55:16;11.20;99.90
21622;DHT22;10973;46.706;12.340;2022-08-25T04:57:43;11.30;99.90
21622;DHT22;10973;46.706;12.340;2022-08-25T05:00:11;11.30;99.90
21622;DHT22;10973;46.706;12.340;2022-08-25T05:02:39;11.30;99.90
21622;DHT22;10973;46.706;12.340;2022-08-25T05:09:16;11.30;99.90
21622;DHT22;10973;46.706;12.340;2022-08-25T05:11:47;11.20;99.90
21622;DHT22;10973;46.706;12.340;2022-08-25T05:14:15;11.30;99.90
21622;DHT22;10973;46.706;12.340;2022-08-25T05:16:42;11.40;99.90
21622;DHT22;10973;46.706;12.340;2022-08-25T05:19:10;11.50;99.90
21622;DHT22;10973;46.706;12.340;2022-08-25T05:21:37;11.50;99.90
21622;DHT22;10973;46.706;12.340;2022-08-25T05:32:05;11.40;99.90
21622;DHT22;10973;46.706;12.340;2022-08-25T05:34:32;11.40;99.90
21622;DHT22;10973;46.706;12.340;2022-08-25T05:41:15;11.40;99.90
21622;DHT22;10973;46.706;12.340;2022-08-25T05:43:46;11.40;99.90
21622;DHT22;10973;46.706;12.340;2022-08-25T05:46:16;11.40;99.90
21622;DHT22;10973;46.706;12.340;2022-08-25T05:48:45;11.40;99.90
21622;DHT22;10973;46.706;12.340;2022-08-25T05:55:22;11.50;99.90
21622;DHT22;10973;46.706;12.340;2022-08-25T05:57:49;11.70;99.90
21622;DHT22;10973;46.706;12.340;2022-08-25T06:00:17;11.80;99.90
21622;DHT22;10973;46.706;12.340;2022-08-25T06:02:44;11.90;99.90
21622;DHT22;10973;46.706;12.340;2022-08-25T06:05:21;12.00;99.90
21622;DHT22;10973;46.706;12.340;2022-08-25T06:07:51;12.10;99.90
21622;DHT22;10973;46.706;12.340;2022-08-25T06:10:18;12.10;99.90
21622;DHT22;10973;46.706;12.340;2022-08-25T06:12:46;12.30;99.90
21622;DHT22;10973;46.706;12.340;2022-08-25T06:15:18;12.40;99.90
21622;DHT22;10973;46.706;12.340;2022-08-25T06:17:48;12.60;99.90
21622;DHT22;10973;46.706;12.340;2022-08-25T06:23:38;12.90;99.90
21622;DHT22;10973;46.706;12.340;2022-08-25T06:30:08;13.10;99.90
21622;DHT22;10973;46.706;12.340;2022-08-25T06:32:39;13.20;99.90
21622;DHT22;10973;46.706;12.340;2022-08-25T06:38:48;13.40;99.90
21622;DHT22;10973;46.706;12.340;2022-08-25T06:41:15;13.50;99.90
21622;DHT22;10973;46.706;12.340;2022-08-25T06:43:43;13.60;99.90
21622;DHT22;10973;46.706;12.340;2022-08-25T06:46:21;13.70;99.90
21622;DHT22;10973;46.706;12.340;2022-08-25T06:53:04;13.90;99.90
21622;DHT22;10973;46.706;12.340;2022-08-25T06:55:32;14.00;99.90
21622;DHT22;10973;46.706;12.340;2022-08-25T06:58:00;14.10;99.90
21622;DHT22;10973;46.706;12.340;2022-08-25T07:00:31;14.10;99.90
21622;DHT22;10973;46.706;12.340;2022-08-25T07:07:08;14.30;99.90
21622;DHT22;10973;46.706;12.340;2022-08-25T07:13:18;14.60;99.90
21622;DHT22;10973;46.706;12.340;2022-08-25T07:15:45;14.70;99.90
21622;DHT22;10973;46.706;12.340;2022-08-25T07:18:12;14.70;99.90
21622;DHT22;10973;46.706;12.340;2022-08-25T07:20:40;14.80;99.90
21622;DHT22;10973;46.706;12.340;2022-08-25T07:27:17;14.90;99.90
21622;DHT22;10973;46.706;12.340;2022-08-25T07:29:44;15.00;99.90
21622;DHT22;10973;46.706;12.340;2022-08-25T07:32:12;15.10;99.90
21622;DHT22;10973;46.706;12.340;2022-08-25T07:38:48;15.20;99.90
21622;DHT22;10973;46.706;12.340;2022-08-25T07:41:16;15.40;99.90
21622;DHT22;10973;46.706;12.340;2022-08-25T07:47:24;15.50;99.90
21622;DHT22;10973;46.706;12.340;2022-08-25T07:49:51;15.60;99.90
21622;DHT22;10973;46.706;12.340;2022-08-25T07:52:18;15.70;99.90
21622;DHT22;10973;46.706;12.340;2022-08-25T07:54:46;15.80;99.90
21622;DHT22;10973;46.706;12.340;2022-08-25T07:57:13;16.00;99.90
21622;DHT22;10973;46.706;12.340;2022-08-25T07:59:41;16.00;99.90
21622;DHT22;10973;46.706;12.340;2022-08-25T08:02:11;16.10;99.90
21622;DHT22;10973;46.706;12.340;2022-08-25T08:04:48;16.20;99.90
21622;DHT22;10973;46.706;12.340;2022-08-25T08:07:19;16.40;99.90
21622;DHT22;10973;46.706;12.340;2022-08-25T08:14:30;16.40;99.90
21622;DHT22;10973;46.706;12.340;2022-08-25T08:21:14;16.60;99.90
21622;DHT22;10973;46.706;12.340;2022-08-25T08:23:46;16.70;99.90
21622;DHT22;10973;46.706;12.340;2022-08-25T08:26:15;16.70;99.90
21622;DHT22;10973;46.706;12.340;2022-08-25T08:28:43;16.70;99.90
21622;DHT22;10973;46.706;12.340;2022-08-25T08:31:22;16.90;99.90
21622;DHT22;10973;46.706;12.340;2022-08-25T08:33:54;17.00;99.90
21622;DHT22;10973;46.706;12.340;2022-08-25T08:36:23;17.20;99.90
21622;DHT22;10973;46.706;12.340;2022-08-25T08:38:51;17.10;99.90
21622;DHT22;10973;46.706;12.340;2022-08-25T08:53:48;17.50;99.90
21622;DHT22;10973;46.706;12.340;2022-08-25T09:00:23;17.60;99.90
21622;DHT22;10973;46.706;12.340;2022-08-25T09:03:03;17.70;99.90
21622;DHT22;10973;46.706;12.340;2022-08-25T09:09:43;17.90;99.90
21622;DHT22;10973;46.706;12.340;2022-08-25T09:16:36;18.10;99.90
21622;DHT22;10973;46.706;12.340;2022-08-25T09:22:02;18.50;99.90
21622;DHT22;10973;46.706;12.340;2022-08-25T09:25:13;18.50;99.90
21622;DHT22;10973;46.706;12.340;2022-08-25T09:28:12;18.60;99.90
21622;DHT22;10973;46.706;12.340;2022-08-25T09:34:58;18.80;99.90
21622;DHT22;10973;46.706;12.340;2022-08-25T09:37:28;18.90;99.90
21622;DHT22;10973;46.706;12.340;2022-08-25T09:39:58;18.90;99.90
21622;DHT22;10973;46.706;12.340;2022-08-25T09:42:44;18.90;99.90
21622;DHT22;10973;46.706;12.340;2022-08-25T09:49:15;19.10;99.90
21622;DHT22;10973;46.706;12.340;2022-08-25T09:51:42;19.50;99.90
21622;DHT22;10973;46.706;12.340;2022-08-25T10:04:35;19.60;99.90
21622;DHT22;10973;46.706;12.340;2022-08-25T10:07:25;19.70;99.90
21622;DHT22;10973;46.706;12.340;2022-08-25T10:10:00;19.80;99.90
21622;DHT22;10973;46.706;12.340;2022-08-25T10:19:12;20.20;99.90
21622;DHT22;10973;46.706;12.340;2022-08-25T10:24:46;20.70;99.90
21622;DHT22;10973;46.706;12.340;2022-08-25T10:49:43;22.80;96.90
21622;DHT22;10973;46.706;12.340;2022-08-25T10:52:21;23.40;96.40
21622;DHT22;10973;46.706;12.340;2022-08-25T11:07:17;24.00;99.90
21622;DHT22;10973;46.706;12.340;2022-08-25T11:16:20;26.20;91.20
21622;DHT22;10973;46.706;12.340;2022-08-25T11:23:23;26.50;89.00
21622;DHT22;10973;46.706;12.340;2022-08-25T11:26:00;26.60;90.00
21622;DHT22;10973;46.706;12.340;2022-08-25T11:28:53;27.20;88.50
21622;DHT22;10973;46.706;12.340;2022-08-25T11:51:59;25.80;83.90
21622;DHT22;10973;46.706;12.340;2022-08-25T11:54:42;25.20;86.90
21622;DHT22;10973;46.706;12.340;2022-08-25T11:57:22;24.70;88.40
21622;DHT22;10973;46.706;12.340;2022-08-25T12:06:31;23.90;91.00
21622;DHT22;10973;46.706;12.340;2022-08-25T12:24:48;22.60;92.90
21622;DHT22;10973;46.706;12.340;2022-08-25T12:34:52;22.40;92.90
21622;DHT22;10973;46.706;12.340;2022-08-25T12:37:54;22.30;93.20
21622;DHT22;10973;46.706;12.340;2022-08-25T12:40:34;22.40;93.70
21622;DHT22;10973;46.706;12.340;2022-08-25T12:43:25;22.70;93.50
21622;DHT22;10973;46.706;12.340;2022-08-25T12:52:37;24.00;93.40
21622;DHT22;10973;46.706;12.340;2022-08-25T13:09:17;26.10;90.20
21622;DHT22;10973;46.706;12.340;2022-08-25T13:16:00;26.90;88.60
21622;DHT22;10973;46.706;12.340;2022-08-25T13:23:21;27.10;84.30
21622;DHT22;10973;46.706;12.340;2022-08-25T13:25:57;27.40;84.50
21622;DHT22;10973;46.706;12.340;2022-08-25T13:28:29;27.60;84.30
21622;DHT22;10973;46.706;12.340;2022-08-25T13:35:46;27.60;80.90
21622;DHT22;10973;46.706;12.340;2022-08-25T13:38:18;27.40;80.40
21622;DHT22;10973;46.706;12.340;2022-08-25T13:40:46;27.30;81.40
21622;DHT22;10973;46.706;12.340;2022-08-25T13:43:14;27.30;81.00
21622;DHT22;10973;46.706;12.340;2022-08-25T13:55:58;26.80;82.70
21622;DHT22;10973;46.706;12.340;2022-08-25T13:58:33;26.30;84.00
21622;DHT22;10973;46.706;12.340;2022-08-25T14:01:18;26.00;87.70
21622;DHT22;10973;46.706;12.340;2022-08-25T14:04:29;25.50;91.80
21622;DHT22;10973;46.706;12.340;2022-08-25T14:12:35;25.30;92.40
21622;DHT22;10973;46.706;12.340;2022-08-25T14:15:24;25.50;91.20
21622;DHT22;10973;46.706;12.340;2022-08-25T14:18:07;25.50;90.90
21622;DHT22;10973;46.706;12.340;2022-08-25T14:24:53;25.40;95.70
21622;DHT22;10973;46.706;12.340;2022-08-25T14:27:21;25.50;96.70
21622;DHT22;10973;46.706;12.340;2022-08-25T14:29:48;25.70;95.60
21622;DHT22;10973;46.706;12.340;2022-08-25T14:32:18;26.00;96.10
21622;DHT22;10973;46.706;12.340;2022-08-25T14:34:46;26.30;96.40
21622;DHT22;10973;46.706;12.340;2022-08-25T14:37:16;26.70;95.20
21622;DHT22;10973;46.706;12.340;2022-08-25T14:39:51;27.00;91.70
21622;DHT22;10973;46.706;12.340;2022-08-25T14:42:19;27.30;90.10
21622;DHT22;10973;46.706;12.340;2022-08-25T14:44:51;27.60;86.40
21622;DHT22;10973;46.706;12.340;2022-08-25T14:47:18;28.00;84.60
21622;DHT22;10973;46.706;12.340;2022-08-25T14:49:46;28.20;83.30
21622;DHT22;10973;46.706;12.340;2022-08-25T14:56:14;28.40;81.90
21622;DHT22;10973;46.706;12.340;2022-08-25T14:58:42;28.70;87.90
21622;DHT22;10973;46.706;12.340;2022-08-25T15:01:21;28.70;86.10
21622;DHT22;10973;46.706;12.340;2022-08-25T15:04:03;28.90;80.40
21622;DHT22;10973;46.706;12.340;2022-08-25T15:18:30;28.50;88.00
21622;DHT22;10973;46.706;12.340;2022-08-25T15:25:08;28.50;86.10
21622;DHT22;10973;46.706;12.340;2022-08-25T15:27:36;27.60;86.40
21622;DHT22;10973;46.706;12.340;2022-08-25T15:30:04;27.00;87.80
21622;DHT22;10973;46.706;12.340;2022-08-25T15:32:32;26.70;86.30
21622;DHT22;10973;46.706;12.340;2022-08-25T15:39:50;26.10;95.60
21622;DHT22;10973;46.706;12.340;2022-08-25T15:42:18;26.60;95.40
21622;DHT22;10973;46.706;12.340;2022-08-25T15:44:46;26.80;95.10
21622;DHT22;10973;46.706;12.340;2022-08-25T15:47:20;26.80;94.80
21622;DHT22;10973;46.706;12.340;2022-08-25T15:53:48;26.30;95.10
21622;DHT22;10973;46.706;12.340;2022-08-25T15:56:15;25.60;99.90
21622;DHT22;10973;46.706;12.340;2022-08-25T15:59:05;25.40;97.20
21622;DHT22;10973;46.706;12.340;2022-08-25T16:01:34;25.00;99.90
21622;DHT22;10973;46.706;12.340;2022-08-25T16:04:03;24.80;99.90
21622;DHT22;10973;46.706;12.340;2022-08-25T16:06:32;24.80;99.90
21622;DHT22;10973;46.706;12.340;2022-08-25T16:09:21;24.80;94.90
21622;DHT22;10973;46.706;12.340;2022-08-25T16:11:50;25.00;93.20
21622;DHT22;10973;46.706;12.340;2022-08-25T16:14:24;24.90;91.70
21622;DHT22;10973;46.706;12.340;2022-08-25T16:16:54;24.80;91.20
21622;DHT22;10973;46.706;12.340;2022-08-25T16:19:28;24.40;92.10
21622;DHT22;10973;46.706;12.340;2022-08-25T16:21:56;24.20;92.00
21622;DHT22;10973;46.706;12.340;2022-08-25T16:24:26;24.00;95.10
21622;DHT22;10973;46.706;12.340;2022-08-25T16:26:53;23.70;93.60
21622;DHT22;10973;46.706;12.340;2022-08-25T16:33:32;23.40;95.80
21622;DHT22;10973;46.706;12.340;2022-08-25T16:38:38;23.10;99.50
21622;DHT22;10973;46.706;12.340;2022-08-25T16:41:08;23.00;99.90
21622;DHT22;10973;46.706;12.340;2022-08-25T16:43:39;22.90;99.90
21622;DHT22;10973;46.706;12.340;2022-08-25T16:50:18;22.60;99.90
21622;DHT22;10973;46.706;12.340;2022-08-25T16:52:46;22.50;99.90
21622;DHT22;10973;46.706;12.340;2022-08-25T16:55:15;22.50;99.90
21622;DHT22;10973;46.706;12.340;2022-08-25T16:57:45;22.40;99.90
21622;DHT22;10973;46.706;12.340;2022-08-25T17:00:18;22.40;99.90
21622;DHT22;10973;46.706;12.340;2022-08-25T17:10:04;22.20;99.90
21622;DHT22;10973;46.706;12.340;2022-08-25T17:12:38;22.10;98.80
21622;DHT22;10973;46.706;12.340;2022-08-25T18:38:15;19.60;99.90
21622;DHT22;10973;46.706;12.340;2022-08-25T18:40:43;19.50;99.90
21622;DHT22;10973;46.706;12.340;2022-08-25T18:51:30;19.20;99.90
21622;DHT22;10973;46.706;12.340;2022-08-25T18:53:59;19.10;99.90
21622;DHT22;10973;46.706;12.340;2022-08-25T18:56:28;19.00;99.90
21622;DHT22;10973;46.706;12.340;2022-08-25T18:58:56;18.80;99.90
21622;DHT22;10973;46.706;12.340;2022-08-25T19:09:30;18.70;99.90
21622;DHT22;10973;46.706;12.340;2022-08-25T19:11:59;18.70;99.90
21622;DHT22;10973;46.706;12.340;2022-08-25T19:15:02;18.50;99.90
21622;DHT22;10973;46.706;12.340;2022-08-25T19:17:30;18.50;99.90
21622;DHT22;10973;46.706;12.340;2022-08-25T19:20:05;18.40;99.90
21622;DHT22;10973;46.706;12.340;2022-08-25T19:22:37;18.40;99.90
21622;DHT22;10973;46.706;12.340;2022-08-25T19:32:59;18.40;99.90
21622;DHT22;10973;46.706;12.340;2022-08-25T19:35:38;18.40;99.90
21622;DHT22;10973;46.706;12.340;2022-08-25T19:42:14;18.60;99.90
21622;DHT22;10973;46.706;12.340;2022-08-25T19:45:04;18.40;99.90
21622;DHT22;10973;46.706;12.340;2022-08-25T19:51:49;18.20;99.90
21622;DHT22;10973;46.706;12.340;2022-08-25T19:54:22;18.20;99.90
21622;DHT22;10973;46.706;12.340;2022-08-25T19:56:55;18.20;99.90
21622;DHT22;10973;46.706;12.340;2022-08-25T19:59:27;18.10;99.90
21622;DHT22;10973;46.706;12.340;2022-08-25T20:02:15;18.20;99.90
21622;DHT22;10973;46.706;12.340;2022-08-25T20:04:47;18.30;99.90
21622;DHT22;10973;46.706;12.340;2022-08-25T20:11:27;18.20;99.90
21622;DHT22;10973;46.706;12.340;2022-08-25T20:13:55;18.10;99.90
21622;DHT22;10973;46.706;12.340;2022-08-25T20:16:29;18.00;99.90
21622;DHT22;10973;46.706;12.340;2022-08-25T20:22:48;18.00;99.90
21622;DHT22;10973;46.706;12.340;2022-08-25T20:32:34;17.90;99.90
21622;DHT22;10973;46.706;12.340;2022-08-25T20:35:05;18.00;99.90
21622;DHT22;10973;46.706;12.340;2022-08-25T20:37:35;18.00;99.90
21622;DHT22;10973;46.706;12.340;2022-08-25T20:40:04;18.00;99.90
21622;DHT22;10973;46.706;12.340;2022-08-25T20:42:33;17.90;99.90
21622;DHT22;10973;46.706;12.340;2022-08-25T20:45:04;17.70;99.90
21622;DHT22;10973;46.706;12.340;2022-08-25T20:47:33;17.70;99.90
21622;DHT22;10973;46.706;12.340;2022-08-25T20:50:01;17.60;99.90
21622;DHT22;10973;46.706;12.340;2022-08-25T20:56:32;17.50;99.90
21622;DHT22;10973;46.706;12.340;2022-08-25T20:58:59;17.50;99.90
21622;DHT22;10973;46.706;12.340;2022-08-25T21:01:27;17.50;99.90
21622;DHT22;10973;46.706;12.340;2022-08-25T21:03:55;17.40;99.90
21622;DHT22;10973;46.706;12.340;2022-08-25T21:06:22;17.40;99.90
21622;DHT22;10973;46.706;12.340;2022-08-25T21:08:50;17.40;99.90
21622;DHT22;10973;46.706;12.340;2022-08-25T21:14:51;17.40;99.90
21622;DHT22;10973;46.706;12.340;2022-08-25T21:17:19;17.30;99.90
21622;DHT22;10973;46.706;12.340;2022-08-25T21:19:46;17.30;99.90
21622;DHT22;10973;46.706;12.340;2022-08-25T21:22:14;17.30;99.90
21622;DHT22;10973;46.706;12.340;2022-08-25T21:24:42;17.30;99.90
21622;DHT22;10973;46.706;12.340;2022-08-25T21:27:10;17.30;99.90
21622;DHT22;10973;46.706;12.340;2022-08-25T21:29:38;17.30;99.90
21622;DHT22;10973;46.706;12.340;2022-08-25T21:32:16;17.30;99.90
21622;DHT22;10973;46.706;12.340;2022-08-25T21:34:43;17.40;99.90
21622;DHT22;10973;46.706;12.340;2022-08-25T21:37:13;17.50;99.90
21622;DHT22;10973;46.706;12.340;2022-08-25T21:39:40;17.50;99.90
21622;DHT22;10973;46.706;12.340;2022-08-25T21:42:07;17.40;99.90
21622;DHT22;10973;46.706;12.340;2022-08-25T21:44:39;17.30;99.90
21622;DHT22;10973;46.706;12.340;2022-08-25T21:47:06;17.30;99.90
21622;DHT22;10973;46.706;12.340;2022-08-25T21:49:34;17.40;99.90
21622;DHT22;10973;46.706;12.340;2022-08-25T21:52:03;17.40;99.90
21622;DHT22;10973;46.706;12.340;2022-08-25T21:54:31;17.30;99.90
21622;DHT22;10973;46.706;12.340;2022-08-25T21:57:02;17.20;99.90
21622;DHT22;10973;46.706;12.340;2022-08-25T21:59:32;17.20;99.90
21622;DHT22;10973;46.706;12.340;2022-08-25T22:02:04;17.20;99.90
21622;DHT22;10973;46.706;12.340;2022-08-25T22:04:35;17.00;99.90
21622;DHT22;10973;46.706;12.340;2022-08-25T22:07:05;17.00;99.90
21622;DHT22;10973;46.706;12.340;2022-08-25T22:09:34;17.10;99.90
21622;DHT22;10973;46.706;12.340;2022-08-25T22:12:03;17.00;99.90
21622;DHT22;10973;46.706;12.340;2022-08-25T22:14:32;16.90;99.90
21622;DHT22;10973;46.706;12.340;2022-08-25T22:17:00;16.80;99.90
21622;DHT22;10973;46.706;12.340;2022-08-25T22:19:59;16.80;99.90
21622;DHT22;10973;46.706;12.340;2022-08-25T22:22:26;16.80;99.90
21622;DHT22;10973;46.706;12.340;2022-08-25T22:24:53;16.80;99.90
21622;DHT22;10973;46.706;12.340;2022-08-25T22:31:21;16.70;99.90
21622;DHT22;10973;46.706;12.340;2022-08-25T22:33:50;16.70;99.90
21622;DHT22;10973;46.706;12.340;2022-08-25T22:36:30;16.70;99.90
21622;DHT22;10973;46.706;12.340;2022-08-25T22:39:03;16.70;99.90
21622;DHT22;10973;46.706;12.340;2022-08-25T22:41:33;16.60;99.90
21622;DHT22;10973;46.706;12.340;2022-08-25T22:44:07;16.70;99.90
21622;DHT22;10973;46.706;12.340;2022-08-25T22:46:35;16.70;99.90
21622;DHT22;10973;46.706;12.340;2022-08-25T22:49:02;16.60;99.90
21622;DHT22;10973;46.706;12.340;2022-08-25T22:52:07;16.80;99.90
21622;DHT22;10973;46.706;12.340;2022-08-25T22:58:38;16.60;99.90
21622;DHT22;10973;46.706;12.340;2022-08-25T23:01:14;16.50;99.90
21622;DHT22;10973;46.706;12.340;2022-08-25T23:07:53;16.70;99.90
21622;DHT22;10973;46.706;12.340;2022-08-25T23:10:20;16.60;99.90
21622;DHT22;10973;46.706;12.340;2022-08-25T23:16:47;16.40;99.90
21622;DHT22;10973;46.706;12.340;2022-08-25T23:19:16;16.40;99.90
21622;DHT22;10973;46.706;12.340;2022-08-25T23:25:54;16.30;99.90
21622;DHT22;10973;46.706;12.340;2022-08-25T23:42:25;16.30;99.90
21622;DHT22;10973;46.706;12.340;2022-08-25T23:49:03;16.20;99.90
21622;DHT22;10973;46.706;12.340;2022-08-25T23:51:35;16.40;99.90
